Time;durP1;ratioP1;P1;durP2;ratioP2;P2;SDS_P1;SDS_P2;PMS_P1;PMS_P2;Temp;Humidity;BMP_temperature;BMP_pressure;BME280_temperature;BME280_humidity;BME280_pressure;Samples;Min_cycle;Max_cycle;Signal;HPM_P1;HPM_P2
2022/04/06 00:00:49;;;;;;;10.70;6.00;;;11.30;91.60;;;;;;5049831;28;20485;-74
2022/04/06 00:03:18;;;;;;;9.93;6.30;;;11.20;91.90;;;;;;5049807;28;20457;-73
2022/04/06 00:05:45;;;;;;;12.17;6.37;;;11.20;92.30;;;;;;5049839;28;20793;-73
2022/04/06 00:08:12;;;;;;;9.40;6.70;;;11.10;92.90;;;;;;5049652;28;20474;-75
2022/04/06 00:10:39;;;;;;;10.90;6.60;;;11.20;93.10;;;;;;5049776;28;20450;-77
2022/04/06 00:13:06;;;;;;;9.80;6.90;;;11.20;93.50;;;;;;5049420;28;21012;-75
2022/04/06 00:15:34;;;;;;;12.07;6.73;;;11.30;93.60;;;;;;5049766;28;20507;-76
2022/04/06 00:18:02;;;;;;;10.97;6.53;;;11.30;93.90;;;;;;5049815;28;20561;-77
2022/04/06 00:20:30;;;;;;;10.93;6.63;;;11.20;94.30;;;;;;5049757;28;20449;-76
2022/04/06 00:22:57;;;;;;;12.47;6.00;;;11.30;94.20;;;;;;5049773;28;20458;-79
2022/04/06 00:25:25;;;;;;;16.60;6.93;;;11.20;94.30;;;;;;5049784;28;20446;-74
2022/04/06 00:27:52;;;;;;;10.10;7.33;;;11.20;94.70;;;;;;5049663;28;20551;-76
2022/04/06 00:30:19;;;;;;;11.80;7.97;;;11.10;95.10;;;;;;5049724;28;20880;-76
2022/04/06 00:32:46;;;;;;;11.40;7.20;;;11.00;95.30;;;;;;5049413;28;20749;-72
2022/04/06 00:35:32;;;;;;;12.60;7.77;;;10.90;95.90;;;;;;5049562;28;20837;-72
2022/04/06 00:38:03;;;;;;;13.80;7.33;;;10.90;96.30;;;;;;5049519;28;20478;-73
2022/04/06 00:40:32;;;;;;;13.83;6.93;;;11.00;96.60;;;;;;5049281;28;20961;-76
2022/04/06 00:43:00;;;;;;;14.80;7.10;;;11.00;96.80;;;;;;5049079;28;20458;-76
2022/04/06 00:45:27;;;;;;;16.33;8.03;;;10.90;97.10;;;;;;5049170;28;20453;-75
2022/04/06 00:47:55;;;;;;;11.47;7.47;;;10.90;97.10;;;;;;5048955;28;20478;-74
2022/04/06 00:50:25;;;;;;;12.77;9.50;;;10.70;98.00;;;;;;5049560;28;20456;-74
2022/04/06 00:52:55;;;;;;;13.17;7.83;;;10.70;98.60;;;;;;5049758;28;20450;-78
2022/04/06 00:55:26;;;;;;;18.60;13.23;;;10.60;99.20;;;;;;5049559;28;20454;-75
2022/04/06 00:57:53;;;;;;;16.13;12.80;;;10.30;99.00;;;;;;5048955;28;20982;-75
2022/04/06 01:00:20;;;;;;;17.00;12.37;;;10.20;99.60;;;;;;5049018;28;20966;-73
2022/04/06 01:02:48;;;;;;;18.97;12.20;;;10.30;99.60;;;;;;5049443;28;20494;-76
2022/04/06 01:05:16;;;;;;;19.80;13.87;;;10.50;99.30;;;;;;5052387;28;20499;-74
2022/04/06 01:07:48;;;;;;;24.20;17.93;;;10.40;99.20;;;;;;5053082;28;20479;-77
2022/04/06 01:10:15;;;;;;;18.80;14.97;;;10.10;99.00;;;;;;5053369;28;20895;-74
2022/04/06 01:12:46;;;;;;;22.47;17.50;;;10.00;99.70;;;;;;5053174;28;20450;-76
2022/04/06 01:15:14;;;;;;;25.43;18.33;;;10.20;99.10;;;;;;5053060;28;20488;-74
2022/04/06 01:17:42;;;;;;;25.20;16.90;;;10.30;98.60;;;;;;5052878;28;20488;-75
2022/04/06 01:20:11;;;;;;;22.53;17.53;;;10.30;98.30;;;;;;5053355;28;20489;-74
2022/04/06 01:22:40;;;;;;;24.37;17.80;;;10.10;98.50;;;;;;5053054;28;20525;-74
2022/04/06 01:25:08;;;;;;;25.47;16.63;;;9.80;98.70;;;;;;5052721;28;20453;-73
2022/04/06 01:27:35;;;;;;;26.13;17.57;;;9.80;99.40;;;;;;5052530;28;20485;-78
2022/04/06 01:30:03;;;;;;;24.37;16.43;;;10.00;98.60;;;;;;5052819;28;20813;-75
2022/04/06 01:32:32;;;;;;;22.30;17.87;;;10.20;98.80;;;;;;5052857;28;20446;-74
2022/04/06 01:35:00;;;;;;;19.50;14.70;;;10.30;98.60;;;;;;5052214;28;20535;-76
2022/04/06 01:37:28;;;;;;;21.70;14.50;;;10.30;99.10;;;;;;5052465;28;20465;-76
2022/04/06 01:39:57;;;;;;;19.93;13.33;;;10.30;98.90;;;;;;5052568;28;20453;-72
2022/04/06 01:42:24;;;;;;;20.10;13.93;;;10.20;99.40;;;;;;5052453;28;20485;-75
2022/04/06 01:44:52;;;;;;;24.57;12.67;;;10.20;99.80;;;;;;5052956;28;20465;-75
2022/04/06 01:47:21;;;;;;;17.37;12.20;;;10.20;99.90;;;;;;5052885;28;20840;-74
2022/04/06 01:52:33;;;;;;;20.60;14.17;;;9.90;99.90;;;;;;5052308;28;20552;-76
2022/04/06 01:55:04;;;;;;;19.20;12.87;;;9.90;99.90;;;;;;5052665;28;20546;-73
2022/04/06 01:57:32;;;;;;;20.60;13.50;;;10.00;99.90;;;;;;5052202;28;20990;-75
2022/04/06 01:59:59;;;;;;;19.17;13.83;;;10.00;99.90;;;;;;5052273;28;20994;-77
2022/04/06 02:02:30;;;;;;;18.63;13.40;;;10.10;99.90;;;;;;5052212;28;20854;-74
2022/04/06 02:04:59;;;;;;;18.10;12.57;;;10.10;99.90;;;;;;5051954;28;20814;-75
2022/04/06 02:07:26;;;;;;;14.00;10.90;;;10.10;99.90;;;;;;5051996;28;20845;-76
2022/04/06 02:09:54;;;;;;;16.53;10.77;;;10.10;99.90;;;;;;5051997;28;20828;-77
2022/04/06 02:12:22;;;;;;;21.50;10.33;;;10.00;99.90;;;;;;5052113;28;20523;-76
2022/04/06 02:14:50;;;;;;;18.70;12.40;;;9.90;99.90;;;;;;5051665;28;20934;-75
2022/04/06 02:17:17;;;;;;;19.77;12.90;;;9.90;99.90;;;;;;5050518;28;20489;-74
2022/04/06 02:19:44;;;;;;;18.27;12.10;;;9.90;99.90;;;;;;5051785;28;20454;-74
2022/04/06 02:22:11;;;;;;;16.97;11.90;;;9.90;99.90;;;;;;5051668;28;20997;-77
2022/04/06 02:24:39;;;;;;;20.50;11.37;;;10.00;99.90;;;;;;5051647;28;20961;-74
2022/04/06 02:27:09;;;;;;;17.10;12.93;;;10.00;99.90;;;;;;5051496;28;20576;-74
2022/04/06 02:29:39;;;;;;;18.87;11.83;;;10.10;99.90;;;;;;5051612;28;20465;-74
2022/04/06 02:32:07;;;;;;;21.27;12.90;;;10.00;99.90;;;;;;5051485;28;20450;-74
2022/04/06 02:34:35;;;;;;;18.43;13.27;;;9.90;99.90;;;;;;5051091;28;20453;-76
2022/04/06 02:37:02;;;;;;;17.90;12.90;;;9.90;99.90;;;;;;5051561;28;20473;-75
2022/04/06 02:39:29;;;;;;;17.17;12.63;;;9.80;99.90;;;;;;5051753;28;20450;-77
2022/04/06 02:41:56;;;;;;;17.07;12.43;;;9.80;99.90;;;;;;5051101;28;20485;-74
2022/04/06 02:44:24;;;;;;;16.70;12.27;;;9.80;99.90;;;;;;5051142;28;20930;-74
2022/04/06 02:46:52;;;;;;;18.50;12.13;;;9.80;99.90;;;;;;5051335;28;20528;-76
2022/04/06 02:49:20;;;;;;;15.70;12.27;;;9.80;99.90;;;;;;5051105;28;20493;-74
2022/04/06 02:51:47;;;;;;;15.27;11.53;;;9.90;99.90;;;;;;5051282;28;20460;-78
2022/04/06 02:54:14;;;;;;;15.50;11.00;;;9.70;99.90;;;;;;5051341;28;20459;-75
2022/04/06 02:56:41;;;;;;;17.57;10.40;;;9.80;99.90;;;;;;5050801;28;20482;-74
2022/04/06 02:59:08;;;;;;;15.70;12.30;;;9.80;99.90;;;;;;5050900;28;20947;-74
2022/04/06 03:01:36;;;;;;;18.97;10.70;;;9.80;99.90;;;;;;5050887;28;20486;-74
2022/04/06 03:04:05;;;;;;;15.90;10.87;;;9.90;99.90;;;;;;5050958;28;20797;-75
2022/04/06 03:06:32;;;;;;;17.07;12.40;;;9.90;99.90;;;;;;5050759;28;20838;-74
2022/04/06 03:08:59;;;;;;;19.47;13.23;;;9.80;99.90;;;;;;5050999;28;20450;-76
2022/04/06 03:11:26;;;;;;;19.87;12.10;;;9.70;99.90;;;;;;5050664;28;20498;-74
2022/04/06 03:13:55;;;;;;;14.10;11.37;;;9.70;99.90;;;;;;5050484;28;20454;-73
2022/04/06 03:16:22;;;;;;;14.33;10.30;;;9.70;99.90;;;;;;5050262;28;20474;-75
2022/04/06 03:18:49;;;;;;;17.40;11.00;;;9.60;99.90;;;;;;5050688;28;20454;-75
2022/04/06 03:21:17;;;;;;;15.30;10.30;;;9.70;99.90;;;;;;5050661;28;20454;-77
2022/04/06 03:23:45;;;;;;;14.80;10.90;;;9.70;99.90;;;;;;5050680;28;20453;-77
2022/04/06 03:26:12;;;;;;;17.37;11.77;;;9.70;99.90;;;;;;5050357;28;20470;-76
2022/04/06 03:28:40;;;;;;;13.83;10.07;;;9.60;99.90;;;;;;5050058;28;20808;-76
2022/04/06 03:31:07;;;;;;;14.37;10.17;;;9.50;99.90;;;;;;5050471;28;20515;-75
2022/04/06 03:33:35;;;;;;;18.00;11.23;;;9.60;99.90;;;;;;5050517;28;20450;-75
2022/04/06 03:36:02;;;;;;;15.63;10.93;;;9.60;99.90;;;;;;5050392;28;20450;-74
2022/04/06 03:38:31;;;;;;;17.00;11.97;;;9.60;99.90;;;;;;5050358;28;20454;-75
2022/04/06 03:40:58;;;;;;;18.53;10.73;;;9.40;99.90;;;;;;5050396;28;20456;-73
2022/04/06 03:43:25;;;;;;;14.33;10.27;;;9.30;99.90;;;;;;5050176;28;20496;-75
2022/04/06 03:45:52;;;;;;;15.47;12.20;;;9.30;99.90;;;;;;5050137;28;20481;-74
2022/04/06 03:48:21;;;;;;;19.13;12.40;;;9.40;99.90;;;;;;5049848;28;20493;-75
2022/04/06 03:50:49;;;;;;;17.77;12.33;;;9.50;99.90;;;;;;5050545;28;20461;-73
2022/04/06 03:53:16;;;;;;;16.83;12.23;;;9.30;99.90;;;;;;5049975;28;20569;-77
2022/04/06 03:55:45;;;;;;;18.70;13.73;;;9.20;99.90;;;;;;5050177;28;20458;-77
2022/04/06 03:58:12;;;;;;;17.17;11.90;;;9.10;99.90;;;;;;5049762;28;20849;-75
2022/04/06 04:00:39;;;;;;;19.10;13.30;;;9.00;99.90;;;;;;5049790;28;20446;-77
2022/04/06 04:03:06;;;;;;;18.67;13.07;;;8.90;99.90;;;;;;5050066;28;20508;-75
2022/04/06 04:05:34;;;;;;;20.13;13.37;;;8.80;99.90;;;;;;5049793;28;20478;-76
2022/04/06 04:08:01;;;;;;;23.50;14.47;;;8.70;99.90;;;;;;5049771;28;20465;-72
2022/04/06 04:10:28;;;;;;;24.57;14.83;;;8.70;99.90;;;;;;5049910;28;20446;-77
2022/04/06 04:12:57;;;;;;;21.67;14.60;;;8.60;99.90;;;;;;5050077;28;20458;-74
2022/04/06 04:15:24;;;;;;;24.87;15.47;;;8.40;99.90;;;;;;5049813;28;20474;-76
2022/04/06 04:17:51;;;;;;;19.97;15.60;;;8.70;99.90;;;;;;5049840;28;20450;-77
2022/04/06 04:20:18;;;;;;;24.70;15.93;;;9.10;99.90;;;;;;5049664;28;20811;-74
2022/04/06 04:22:46;;;;;;;29.77;15.80;;;9.40;99.90;;;;;;5049561;28;20527;-75
2022/04/06 04:25:13;;;;;;;21.67;14.60;;;9.30;99.90;;;;;;5050025;28;20485;-78
2022/04/06 04:27:41;;;;;;;27.43;16.80;;;9.10;99.90;;;;;;5049798;28;20458;-74
2022/04/06 04:30:11;;;;;;;19.70;15.73;;;9.10;99.90;;;;;;5049701;28;20466;-76
2022/04/06 04:32:38;;;;;;;27.63;16.93;;;9.10;99.90;;;;;;5049163;28;20966;-75
2022/04/06 04:35:07;;;;;;;30.77;16.90;;;9.20;99.90;;;;;;5049735;28;20457;-76
2022/04/06 04:37:34;;;;;;;24.50;17.30;;;9.30;99.90;;;;;;5050218;28;20453;-74
2022/04/06 04:40:02;;;;;;;28.00;18.00;;;9.50;99.90;;;;;;5052268;28;20914;-74
2022/04/06 04:42:29;;;;;;;20.13;16.40;;;9.50;99.90;;;;;;5054240;28;20489;-73
2022/04/06 04:44:56;;;;;;;23.23;16.60;;;9.60;99.90;;;;;;5054820;28;20457;-76
2022/04/06 04:47:25;;;;;;;23.00;16.70;;;9.60;99.90;;;;;;5054018;28;20458;-73
2022/04/06 04:49:52;;;;;;;25.10;17.90;;;9.70;99.90;;;;;;5053662;28;20490;-76
2022/04/06 04:52:19;;;;;;;27.50;16.80;;;9.90;99.90;;;;;;5053778;28;20942;-75
2022/04/06 04:54:46;;;;;;;27.87;19.43;;;9.90;99.90;;;;;;5053249;28;20500;-77
2022/04/06 04:57:13;;;;;;;29.50;19.50;;;10.00;99.90;;;;;;5053530;28;20457;-75
2022/04/06 04:59:40;;;;;;;32.53;20.77;;;10.00;99.90;;;;;;5053238;28;20460;-72
2022/04/06 05:02:07;;;;;;;28.20;20.60;;;10.10;99.90;;;;;;5053210;28;20501;-74
2022/04/06 05:04:36;;;;;;;35.50;21.93;;;10.10;99.90;;;;;;5053265;28;20458;-70
2022/04/06 05:07:04;;;;;;;32.43;20.57;;;9.90;99.90;;;;;;5053394;28;20873;-77
2022/04/06 05:09:31;;;;;;;31.40;19.20;;;9.80;99.90;;;;;;5053662;28;20480;-77
2022/04/06 05:11:58;;;;;;;28.17;19.60;;;9.80;99.90;;;;;;5053353;28;20453;-76
2022/04/06 05:14:27;;;;;;;26.80;17.50;;;9.90;99.90;;;;;;5053016;28;20453;-64
2022/04/06 05:16:54;;;;;;;26.77;17.73;;;10.20;99.90;;;;;;5052661;28;20474;-67
2022/04/06 05:19:21;;;;;;;26.40;16.70;;;10.20;99.90;;;;;;5052958;28;20789;-65
2022/04/06 05:21:49;;;;;;;34.37;18.30;;;10.20;99.90;;;;;;5053000;28;20915;-66
2022/04/06 05:24:17;;;;;;;21.03;13.67;;;10.30;99.90;;;;;;5052716;28;20512;-76
2022/04/06 05:26:44;;;;;;;19.83;13.00;;;10.30;99.90;;;;;;5052757;28;20477;-72
2022/04/06 05:29:12;;;;;;;19.07;12.97;;;10.20;99.90;;;;;;5053188;28;20454;-73
2022/04/06 05:31:39;;;;;;;18.83;11.60;;;10.30;99.90;;;;;;5056678;28;20470;-75
2022/04/06 05:34:07;;;;;;;18.20;11.40;;;10.50;99.90;;;;;;5052999;28;20854;-77
2022/04/06 05:36:34;;;;;;;15.90;10.67;;;10.50;99.90;;;;;;5052811;28;20997;-72
2022/04/06 05:39:02;;;;;;;18.77;11.50;;;10.60;99.90;;;;;;5052648;28;20509;-74
2022/04/06 05:41:30;;;;;;;14.87;10.50;;;10.70;99.90;;;;;;5052287;28;20457;-72
2022/04/06 05:43:57;;;;;;;17.00;12.60;;;10.70;99.90;;;;;;5052191;28;20489;-75
2022/04/06 05:46:24;;;;;;;14.10;10.40;;;10.70;99.90;;;;;;5052403;28;20967;-73
2022/04/06 05:48:51;;;;;;;17.20;11.40;;;10.80;99.90;;;;;;5051849;28;20855;-77
2022/04/06 05:51:18;;;;;;;13.30;9.33;;;11.00;99.90;;;;;;5052034;28;20454;-76
2022/04/06 05:53:45;;;;;;;15.90;9.10;;;11.10;99.90;;;;;;5052245;28;20448;-76
2022/04/06 05:56:14;;;;;;;11.73;8.27;;;11.00;99.90;;;;;;5052218;28;20470;-74
2022/04/06 05:58:42;;;;;;;10.13;8.00;;;11.00;99.90;;;;;;5052252;28;20454;-74
2022/04/06 06:01:10;;;;;;;16.20;8.03;;;11.00;99.90;;;;;;5052228;28;20458;-76
2022/04/06 06:03:37;;;;;;;14.77;8.00;;;11.00;99.90;;;;;;5052269;28;20489;-78
2022/04/06 06:06:04;;;;;;;16.53;8.23;;;10.90;99.90;;;;;;5052159;28;20979;-71
2022/04/06 06:08:31;;;;;;;18.47;9.27;;;11.00;99.90;;;;;;5051748;28;20791;-75
2022/04/06 06:10:59;;;;;;;15.77;10.30;;;11.10;99.90;;;;;;5051826;28;20465;-70
2022/04/06 06:13:28;;;;;;;17.77;10.70;;;11.30;99.90;;;;;;5051986;28;20450;-70
2022/04/06 06:15:55;;;;;;;23.17;12.87;;;11.20;99.90;;;;;;5051955;28;20508;-70
2022/04/06 06:18:22;;;;;;;19.77;13.70;;;11.20;99.90;;;;;;5051878;28;20453;-69
2022/04/06 06:20:49;;;;;;;31.50;26.03;;;11.20;99.90;;;;;;5051712;28;20450;-70
2022/04/06 06:23:17;;;;;;;25.03;13.70;;;11.30;99.90;;;;;;5050203;28;20845;-69
2022/04/06 06:25:44;;;;;;;17.47;13.10;;;11.60;99.90;;;;;;5053530;28;20473;-69
2022/04/06 06:28:11;;;;;;;17.07;11.97;;;11.70;99.60;;;;;;5051548;28;20458;-68
2022/04/06 06:30:40;;;;;;;21.17;12.23;;;11.90;99.60;;;;;;5051483;28;20457;-66
2022/04/06 06:33:07;;;;;;;20.57;11.77;;;12.00;98.80;;;;;;5051233;28;20450;-74
2022/04/06 06:35:34;;;;;;;17.70;12.40;;;12.00;98.60;;;;;;5051661;28;20474;-78
2022/04/06 06:38:01;;;;;;;15.60;11.33;;;12.20;98.30;;;;;;5051238;28;20940;-70
2022/04/06 06:40:29;;;;;;;17.63;12.20;;;12.40;98.30;;;;;;5051185;28;20462;-71
2022/04/06 06:42:56;;;;;;;15.93;11.57;;;12.40;97.90;;;;;;5051410;28;20528;-69
2022/04/06 06:45:23;;;;;;;19.40;10.33;;;12.60;97.40;;;;;;5051298;28;20477;-69
2022/04/06 06:47:52;;;;;;;20.67;10.43;;;12.80;97.10;;;;;;5050998;28;20559;-68
2022/04/06 06:50:20;;;;;;;13.13;10.20;;;13.20;96.00;;;;;;5049523;28;20454;-68
2022/04/06 06:52:48;;;;;;;21.07;10.77;;;13.50;95.70;;;;;;5051156;28;20457;-69
2022/04/06 06:55:18;;;;;;;20.80;13.00;;;13.60;94.80;;;;;;5050899;28;21081;-69
2022/04/06 06:57:45;;;;;;;21.37;13.00;;;13.80;93.90;;;;;;5051039;28;20453;-69
2022/04/06 07:00:14;;;;;;;21.13;13.27;;;13.90;93.80;;;;;;5050992;28;20464;-69
2022/04/06 07:02:41;;;;;;;20.30;14.10;;;14.20;92.80;;;;;;5048887;28;20492;-72
2022/04/06 07:05:10;;;;;;;20.27;15.80;;;14.30;92.30;;;;;;5050695;28;20470;-70
2022/04/06 07:07:49;;;;;;;16.50;12.20;;;14.40;92.00;;;;;;5050526;28;20454;-69
2022/04/06 07:10:16;;;;;;;18.00;12.27;;;14.70;90.90;;;;;;5050860;28;20461;-70
2022/04/06 07:12:44;;;;;;;19.00;11.17;;;14.90;90.30;;;;;;5050703;28;20530;-71
2022/04/06 07:15:11;;;;;;;20.07;11.53;;;15.10;89.00;;;;;;5050088;28;20481;-67
2022/04/06 07:17:39;;;;;;;16.30;12.07;;;15.20;88.90;;;;;;5050708;28;20461;-68
2022/04/06 07:20:06;;;;;;;14.90;10.93;;;15.40;87.50;;;;;;5050669;28;20454;-69
2022/04/06 07:22:35;;;;;;;18.63;11.50;;;15.50;86.60;;;;;;5050317;28;20962;-70
2022/04/06 07:25:03;;;;;;;19.07;11.37;;;15.40;84.80;;;;;;5050538;28;20454;-69
2022/04/06 07:27:35;;;;;;;16.60;10.60;;;15.40;84.10;;;;;;5050334;28;20465;-68
2022/04/06 07:30:03;;;;;;;14.93;10.23;;;15.40;83.10;;;;;;5049992;28;20859;-69
2022/04/06 07:32:30;;;;;;;16.30;10.80;;;15.60;82.50;;;;;;5050345;28;20962;-71
2022/04/06 07:34:57;;;;;;;20.50;11.90;;;15.60;81.20;;;;;;5050106;28;20457;-68
2022/04/06 07:37:24;;;;;;;18.97;11.53;;;15.70;80.20;;;;;;5050215;28;20565;-71
2022/04/06 07:39:53;;;;;;;15.63;11.30;;;15.80;80.10;;;;;;5050212;28;20495;-71
2022/04/06 07:42:20;;;;;;;16.53;11.03;;;16.00;79.60;;;;;;5050086;28;20458;-70
2022/04/06 07:44:47;;;;;;;20.40;12.37;;;16.20;79.50;;;;;;5050016;28;20477;-73
2022/04/06 07:47:14;;;;;;;17.13;11.23;;;16.20;78.70;;;;;;5049860;28;20515;-72
2022/04/06 07:49:41;;;;;;;15.53;11.17;;;16.10;78.00;;;;;;5049615;28;20521;-68
2022/04/06 07:52:08;;;;;;;17.80;11.00;;;16.30;77.10;;;;;;5049853;28;20457;-72
2022/04/06 07:54:36;;;;;;;15.60;10.60;;;16.60;77.30;;;;;;5049946;28;20442;-70
2022/04/06 07:57:04;;;;;;;18.67;10.70;;;16.40;74.00;;;;;;5049701;28;20474;-72
2022/04/06 07:59:31;;;;;;;14.17;9.83;;;16.50;74.80;;;;;;5049464;28;20489;-69
2022/04/06 08:01:58;;;;;;;19.30;11.17;;;16.50;75.70;;;;;;5049228;28;20981;-71
2022/04/06 08:04:25;;;;;;;14.13;9.37;;;16.70;72.80;;;;;;5049667;28;20528;-71
2022/04/06 08:06:52;;;;;;;17.37;9.63;;;16.60;72.90;;;;;;5049600;28;20474;-68
2022/04/06 08:09:19;;;;;;;10.63;8.33;;;16.40;73.50;;;;;;5049788;28;20804;-70
2022/04/06 08:11:47;;;;;;;16.50;10.20;;;16.60;73.40;;;;;;5049646;28;20446;-70
2022/04/06 08:14:15;;;;;;;13.20;8.37;;;16.80;73.40;;;;;;5049484;28;20446;-70
2022/04/06 08:16:42;;;;;;;14.40;8.70;;;17.20;71.30;;;;;;5049442;28;20480;-72
2022/04/06 08:19:09;;;;;;;11.30;9.13;;;17.50;70.30;;;;;;5049406;28;20469;-69
2022/04/06 08:21:36;;;;;;;13.57;8.80;;;17.70;69.20;;;;;;5048834;28;20450;-70
2022/04/06 08:24:04;;;;;;;13.30;9.63;;;17.70;68.40;;;;;;5048926;28;21032;-74
2022/04/06 08:26:31;;;;;;;14.63;8.80;;;17.80;68.20;;;;;;5048869;28;20489;-71
2022/04/06 08:28:58;;;;;;;12.80;7.67;;;18.10;67.30;;;;;;5049295;28;20453;-72
2022/04/06 08:31:26;;;;;;;15.87;8.07;;;18.00;66.80;;;;;;5049835;28;20830;-72
2022/04/06 08:33:54;;;;;;;19.93;9.10;;;17.90;66.20;;;;;;5049296;28;20450;-69
2022/04/06 08:36:21;;;;;;;14.17;8.87;;;18.10;67.50;;;;;;5049223;28;20481;-70
2022/04/06 08:38:48;;;;;;;11.40;7.70;;;18.10;65.90;;;;;;5048304;28;20458;-71
2022/04/06 08:41:16;;;;;;;12.47;8.47;;;18.40;65.10;;;;;;5049319;28;20458;-68
2022/04/06 08:43:44;;;;;;;11.10;8.03;;;18.60;64.40;;;;;;5049105;28;20492;-68
2022/04/06 08:46:11;;;;;;;18.23;8.90;;;18.60;63.60;;;;;;5049193;28;20477;-69
2022/04/06 08:48:40;;;;;;;14.13;7.37;;;18.80;62.00;;;;;;5048729;28;20489;-68
2022/04/06 08:51:09;;;;;;;13.93;9.33;;;18.80;61.00;;;;;;5049264;28;20477;-67
2022/04/06 08:53:40;;;;;;;12.20;7.67;;;18.80;61.00;;;;;;5048953;28;20478;-68
2022/04/06 08:56:08;;;;;;;13.33;9.07;;;18.90;61.80;;;;;;5048667;28;20462;-67
2022/04/06 08:58:36;;;;;;;17.47;10.53;;;19.10;61.30;;;;;;5048807;28;20469;-67
2022/04/06 09:01:03;;;;;;;15.80;8.73;;;19.30;62.00;;;;;;5049318;28;20486;-67
2022/04/06 09:03:30;;;;;;;13.47;8.83;;;19.70;60.80;;;;;;5048489;28;20563;-67
2022/04/06 09:06:02;;;;;;;21.97;8.90;;;19.80;58.80;;;;;;5048732;28;20480;-68
2022/04/06 09:08:41;;;;;;;13.73;8.80;;;19.90;58.30;;;;;;5048916;28;20458;-69
2022/04/06 09:11:10;;;;;;;15.33;8.53;;;20.10;58.70;;;;;;5049366;28;20457;-70
2022/04/06 09:13:37;;;;;;;14.07;9.67;;;20.40;58.60;;;;;;5049087;28;20980;-67
2022/04/06 09:16:08;;;;;;;17.13;12.50;;;20.50;56.20;;;;;;5048741;28;20571;-68
2022/04/06 09:18:35;;;;;;;13.63;8.17;;;20.70;56.20;;;;;;5048526;28;20460;-70
2022/04/06 09:21:04;;;;;;;15.23;9.33;;;20.90;56.10;;;;;;5048715;28;20460;-67
2022/04/06 09:23:32;;;;;;;12.30;8.57;;;20.90;54.60;;;;;;5048965;28;20486;-67
2022/04/06 09:26:04;;;;;;;14.90;8.10;;;20.90;53.40;;;;;;5051307;28;20477;-69
2022/04/06 09:28:32;;;;;;;12.77;8.30;;;21.00;53.30;;;;;;5052401;28;20533;-69
2022/04/06 09:31:00;;;;;;;14.57;9.23;;;21.30;53.90;;;;;;5052398;28;20500;-70
2022/04/06 09:33:29;;;;;;;14.93;8.20;;;21.40;53.70;;;;;;5052621;28;20449;-68
2022/04/06 09:35:58;;;;;;;9.13;7.17;;;21.50;53.10;;;;;;5052493;28;20470;-69
2022/04/06 09:38:31;;;;;;;9.33;6.63;;;21.60;53.40;;;;;;5052574;28;20453;-68
2022/04/06 09:41:03;;;;;;;12.87;7.03;;;21.90;50.70;;;;;;5052488;28;20457;-69
2022/04/06 09:43:31;;;;;;;8.63;5.97;;;22.10;48.60;;;;;;5051922;28;20871;-67
2022/04/06 09:49:05;;;;;;;8.20;5.40;;;22.20;46.80;;;;;;5051948;28;20477;-66
2022/04/06 09:51:33;;;;;;;8.30;5.10;;;21.70;45.60;;;;;;5052783;28;20545;-69
2022/04/06 09:54:04;;;;;;;9.23;4.10;;;21.70;46.70;;;;;;5052109;28;20939;-68
2022/04/06 09:56:32;;;;;;;12.43;4.10;;;21.80;47.10;;;;;;5051801;28;20493;-69
2022/04/06 09:59:01;;;;;;;10.20;5.33;;;22.10;44.90;;;;;;5052119;28;20450;-68
2022/04/06 10:01:32;;;;;;;7.67;4.80;;;22.10;45.10;;;;;;5051656;28;20457;-69
2022/04/06 10:04:03;;;;;;;7.53;5.47;;;21.60;45.90;;;;;;5051748;28;20863;-69
2022/04/06 10:06:33;;;;;;;9.57;5.57;;;21.60;46.20;;;;;;5051800;28;20538;-69
2022/04/06 10:09:04;;;;;;;9.10;5.03;;;21.80;47.80;;;;;;5052011;28;20474;-70
2022/04/06 10:11:32;;;;;;;6.53;4.70;;;22.10;47.00;;;;;;5051690;28;20454;-75
2022/04/06 10:14:00;;;;;;;8.10;5.20;;;22.40;45.80;;;;;;5051982;28;20453;-74
2022/04/06 10:16:28;;;;;;;7.80;4.63;;;22.60;45.20;;;;;;5052225;28;20986;-76
2022/04/06 10:18:56;;;;;;;7.40;4.50;;;22.90;44.50;;;;;;5051711;28;20458;-74
2022/04/06 10:21:31;;;;;;;6.97;4.63;;;23.00;44.00;;;;;;5051363;28;20454;-74
2022/04/06 10:24:13;;;;;;;7.23;4.40;;;22.90;44.30;;;;;;5051779;28;20566;-70
2022/04/06 10:26:56;;;;;;;8.30;5.00;;;23.20;44.00;;;;;;5051170;28;20477;-70
2022/04/06 10:29:23;;;;;;;6.57;5.30;;;23.50;43.60;;;;;;5051338;28;20462;-69
2022/04/06 10:31:50;;;;;;;8.60;4.40;;;23.70;43.30;;;;;;5051321;28;20457;-69
2022/04/06 10:34:22;;;;;;;6.23;3.73;;;23.90;42.20;;;;;;5051555;28;20450;-68
2022/04/06 10:37:06;;;;;;;8.30;3.47;;;23.90;42.80;;;;;;5050128;28;20515;-71
2022/04/06 10:39:59;;;;;;;6.40;4.30;;;24.10;42.20;;;;;;5050992;28;20781;-71
2022/04/06 10:42:34;;;;;;;8.83;5.00;;;24.20;42.40;;;;;;5049348;28;20462;-69
2022/04/06 10:45:02;;;;;;;6.43;4.23;;;24.40;42.30;;;;;;5051247;28;20815;-72
2022/04/06 10:47:31;;;;;;;7.73;4.40;;;24.30;40.80;;;;;;5051033;28;20469;-69
2022/04/06 10:50:28;;;;;;;7.07;4.70;;;24.50;42.30;;;;;;5050610;28;20576;-67
2022/04/06 10:53:26;;;;;;;10.27;4.40;;;24.60;41.60;;;;;;5008610;28;20530;-69
2022/04/06 10:56:06;;;;;;;6.13;4.37;;;24.60;42.00;;;;;;5049800;28;20503;-69
2022/04/06 10:59:09;;;;;;;6.63;4.00;;;24.80;40.90;;;;;;5050676;28;20918;-70
2022/04/06 11:01:38;;;;;;;10.23;4.53;;;25.00;41.20;;;;;;5050436;28;20829;-69
2022/04/06 11:04:16;;;;;;;6.93;3.90;;;25.00;40.40;;;;;;5050667;28;20482;-69
2022/04/06 11:06:53;;;;;;;6.50;3.43;;;25.00;40.20;;;;;;5050634;28;20465;-67
2022/04/06 11:12:13;;;;;;;7.37;4.40;;;25.00;39.90;;;;;;5050727;28;20483;-71
2022/04/06 11:14:42;;;;;;;17.97;4.70;;;25.20;40.40;;;;;;5050668;28;20446;-70
2022/04/06 11:17:41;;;;;;;7.87;3.43;;;25.50;40.60;;;;;;5050190;28;20473;-71
2022/04/06 11:20:10;;;;;;;6.50;3.23;;;25.40;38.60;;;;;;5042620;28;20568;-68
2022/04/06 11:22:39;;;;;;;5.47;2.97;;;25.40;39.40;;;;;;5050461;28;20446;-69
2022/04/06 11:25:11;;;;;;;8.07;3.60;;;25.30;39.10;;;;;;5050168;28;20842;-70
2022/04/06 11:27:42;;;;;;;6.00;3.23;;;25.40;39.10;;;;;;5049880;28;20553;-71
2022/04/06 11:30:12;;;;;;;5.77;3.27;;;25.60;39.40;;;;;;5050515;28;20450;-68
2022/04/06 11:32:40;;;;;;;6.50;3.00;;;25.40;39.10;;;;;;5050229;28;20453;-69
2022/04/06 11:35:09;;;;;;;6.80;3.30;;;25.50;38.20;;;;;;5050492;28;20953;-71
2022/04/06 11:37:41;;;;;;;6.90;3.00;;;25.50;39.50;;;;;;5050215;28;20489;-69
2022/04/06 11:40:10;;;;;;;8.67;4.30;;;25.50;39.80;;;;;;5050001;28;20543;-70
2022/04/06 11:42:37;;;;;;;7.37;4.07;;;25.40;39.10;;;;;;5050129;28;20450;-70
2022/04/06 11:45:07;;;;;;;5.10;3.53;;;25.70;39.40;;;;;;5049760;28;20485;-71
2022/04/06 11:47:36;;;;;;;5.83;3.40;;;25.80;38.60;;;;;;5049337;28;20477;-71
2022/04/06 11:50:05;;;;;;;5.83;3.30;;;26.10;38.70;;;;;;5050003;28;20963;-72
2022/04/06 11:52:34;;;;;;;6.20;3.10;;;26.20;38.40;;;;;;5049854;28;20552;-69
2022/04/06 11:55:02;;;;;;;5.50;3.70;;;26.20;38.10;;;;;;5050025;28;20454;-69
2022/04/06 11:57:36;;;;;;;9.10;5.20;;;26.20;38.80;;;;;;5049529;28;20473;-71
2022/04/06 12:00:06;;;;;;;9.67;4.73;;;26.40;38.10;;;;;;5050026;28;20464;-70
2022/04/06 12:02:53;;;;;;;5.33;3.50;;;26.50;38.30;;;;;;5049772;28;20458;-70
2022/04/06 12:05:20;;;;;;;6.97;3.73;;;26.60;37.70;;;;;;5049804;28;20532;-70
2022/04/06 12:07:48;;;;;;;6.93;3.87;;;26.40;37.90;;;;;;5049524;28;20489;-71
2022/04/06 12:10:16;;;;;;;6.00;3.67;;;26.40;38.50;;;;;;5049693;28;20933;-70
2022/04/06 12:12:43;;;;;;;6.80;3.37;;;26.40;38.70;;;;;;5049560;28;20476;-70
2022/04/06 12:15:12;;;;;;;5.27;2.90;;;26.40;37.60;;;;;;5049659;28;20446;-68
2022/04/06 12:17:40;;;;;;;8.97;3.60;;;26.40;38.60;;;;;;5049622;28;20796;-68
2022/04/06 12:20:24;;;;;;;6.73;3.20;;;26.70;38.20;;;;;;5049546;28;20511;-72
2022/04/06 12:23:05;;;;;;;6.23;3.80;;;26.80;37.40;;;;;;5049566;28;20511;-71
2022/04/06 12:25:33;;;;;;;7.10;3.33;;;26.70;38.40;;;;;;5049271;28;20485;-70
2022/04/06 12:28:11;;;;;;;5.60;2.90;;;26.90;38.10;;;;;;5048942;28;20984;-72
2022/04/06 12:30:58;;;;;;;6.80;3.70;;;27.00;38.50;;;;;;5049391;28;20567;-71
2022/04/06 12:33:40;;;;;;;7.57;4.00;;;27.30;37.30;;;;;;5049328;28;20465;-69
2022/04/06 12:36:15;;;;;;;9.93;3.40;;;27.00;37.10;;;;;;5049333;28;20937;-70
2022/04/06 12:38:45;;;;;;;7.50;3.40;;;26.80;37.20;;;;;;5049023;28;20754;-70
2022/04/06 12:41:13;;;;;;;5.70;3.30;;;26.80;37.30;;;;;;5049432;28;20503;-70
2022/04/06 12:43:44;;;;;;;6.83;4.43;;;26.90;37.30;;;;;;5049201;28;20536;-70
2022/04/06 12:46:13;;;;;;;5.67;4.13;;;27.10;39.60;;;;;;5049191;28;20497;-71
2022/04/06 12:48:40;;;;;;;6.10;3.23;;;27.50;37.60;;;;;;5048764;28;20496;-72
2022/04/06 12:51:21;;;;;;;6.43;3.53;;;27.80;36.80;;;;;;5049038;28;20934;-72
2022/04/06 12:53:52;;;;;;;9.13;3.77;;;28.00;36.20;;;;;;5049144;28;20815;-70